Time;durP1;ratioP1;P1;durP2;ratioP2;P2;SDS_P1;SDS_P2;PMS_P1;PMS_P2;Temp;Humidity;BMP_temperature;BMP_pressure;BME280_temperature;BME280_humidity;BME280_pressure;Samples;Min_cycle;Max_cycle;Signal;HPM_P1;HPM_P2
2023/12/04 00:00:25;;;;;;;40.17;20.33;;;0.10;99.90;;;;;;5061641;28;20049;-63
2023/12/04 00:02:51;;;;;;;42.95;20.17;;;0.10;99.90;;;;;;5059707;28;20037;-63
2023/12/04 00:05:17;;;;;;;41.88;19.52;;;0.10;99.90;;;;;;5075682;28;20294;-62
2023/12/04 00:07:42;;;;;;;41.03;20.55;;;0.10;99.90;;;;;;5062136;28;20045;-62
2023/12/04 00:10:08;;;;;;;42.88;20.45;;;0.10;99.90;;;;;;5078114;28;20104;-63
2023/12/04 00:12:34;;;;;;;45.90;21.40;;;0.90;99.90;;;;;;5067119;28;20051;-62
2023/12/04 00:15:00;;;;;;;40.53;20.10;;;0.10;99.90;;;;;;5069413;28;20044;-63
2023/12/04 00:17:25;;;;;;;35.03;18.25;;;0.10;99.90;;;;;;5061426;28;20044;-62
2023/12/04 00:19:51;;;;;;;42.03;20.35;;;0.10;99.90;;;;;;5083450;28;20045;-63
2023/12/04 00:22:17;;;;;;;43.58;20.10;;;0.00;99.90;;;;;;5063494;28;20044;-62
2023/12/04 00:24:43;;;;;;;42.95;20.63;;;0.00;99.90;;;;;;5039163;28;20052;-63
2023/12/04 00:27:08;;;;;;;41.78;19.95;;;0.00;99.90;;;;;;5060202;28;20093;-62
2023/12/04 00:29:34;;;;;;;43.88;20.45;;;0.00;99.90;;;;;;5083923;28;20386;-63
2023/12/04 00:31:59;;;;;;;39.70;21.10;;;0.00;99.90;;;;;;5054085;28;20040;-63
2023/12/04 00:34:25;;;;;;;43.17;20.20;;;0.10;99.90;;;;;;5048109;28;20052;-63
2023/12/04 00:36:51;;;;;;;38.40;20.23;;;0.00;99.90;;;;;;5062921;28;20044;-64
2023/12/04 00:39:17;;;;;;;44.88;21.52;;;0.00;99.90;;;;;;5065394;28;20045;-63
2023/12/04 00:41:43;;;;;;;39.33;19.17;;;1.10;99.90;;;;;;5065347;28;20052;-63
2023/12/04 00:44:08;;;;;;;41.60;20.42;;;0.10;99.90;;;;;;5068061;28;20496;-63
2023/12/04 00:46:34;;;;;;;41.80;19.80;;;0.00;99.90;;;;;;5058441;28;20036;-63
2023/12/04 00:49:00;;;;;;;41.63;20.25;;;0.00;99.90;;;;;;5042521;28;20037;-63
2023/12/04 00:51:26;;;;;;;41.33;19.98;;;0.00;99.90;;;;;;5053983;28;20063;-64
2023/12/04 00:53:51;;;;;;;41.35;20.30;;;0.00;99.90;;;;;;5067200;28;20041;-63
2023/12/04 00:56:19;;;;;;;43.80;21.90;;;0.00;99.90;;;;;;5065338;28;20040;-63
2023/12/04 00:58:45;;;;;;;43.47;20.70;;;0.00;99.90;;;;;;5066491;28;20040;-63
2023/12/04 01:01:10;;;;;;;45.50;20.95;;;0.00;99.90;;;;;;5074177;28;20131;-63
2023/12/04 01:03:37;;;;;;;41.00;21.17;;;0.00;99.90;;;;;;5070803;28;20047;-63
2023/12/04 01:06:03;;;;;;;40.67;20.38;;;0.00;99.90;;;;;;5055854;28;20102;-63
2023/12/04 01:08:29;;;;;;;46.75;21.05;;;0.00;99.90;;;;;;5052764;28;20049;-63
2023/12/04 01:10:55;;;;;;;44.42;22.35;;;0.00;99.90;;;;;;5048643;28;20044;-62
2023/12/04 01:13:21;;;;;;;40.25;20.55;;;0.10;99.90;;;;;;5047139;28;20056;-63
2023/12/04 01:15:48;;;;;;;43.88;21.35;;;0.00;99.90;;;;;;5054757;28;20457;-63
2023/12/04 01:18:14;;;;;;;43.83;21.48;;;0.00;99.90;;;;;;5058376;28;20056;-63
2023/12/04 01:20:40;;;;;;;44.55;21.92;;;0.00;99.90;;;;;;5053771;28;20048;-63
2023/12/04 01:23:06;;;;;;;43.55;21.40;;;0.00;99.90;;;;;;5060198;28;20044;-62
2023/12/04 01:25:32;;;;;;;46.28;22.42;;;0.00;99.90;;;;;;5061131;28;20044;-63
2023/12/04 01:27:57;;;;;;;41.78;20.48;;;0.00;99.90;;;;;;5053311;28;20037;-63
2023/12/04 01:30:23;;;;;;;45.35;21.60;;;0.00;99.90;;;;;;5044004;28;20053;-63
2023/12/04 01:32:49;;;;;;;42.00;21.58;;;0.00;99.90;;;;;;5054807;28;20497;-64
2023/12/04 01:35:14;;;;;;;45.17;22.77;;;0.00;99.90;;;;;;5061480;28;20048;-62
2023/12/04 01:37:40;;;;;;;47.10;21.85;;;0.00;99.90;;;;;;5061418;28;20075;-63
2023/12/04 01:40:06;;;;;;;44.90;22.83;;;0.00;99.90;;;;;;5049232;28;20106;-63
2023/12/04 01:42:32;;;;;;;44.33;22.48;;;0.00;99.90;;;;;;5051818;28;20080;-63
2023/12/04 01:44:58;;;;;;;45.53;22.67;;;0.00;99.90;;;;;;5056309;28;20471;-62
2023/12/04 01:47:25;;;;;;;44.60;22.60;;;0.00;99.90;;;;;;5058217;28;20123;-62
2023/12/04 01:49:51;;;;;;;45.70;23.13;;;0.00;99.90;;;;;;5046876;28;20115;-63
2023/12/04 01:52:17;;;;;;;42.58;22.08;;;0.20;99.90;;;;;;5051020;28;20048;-63
2023/12/04 01:54:44;;;;;;;43.65;21.85;;;0.00;99.90;;;;;;5049156;28;20053;-63
2023/12/04 01:57:10;;;;;;;45.03;22.10;;;0.00;99.90;;;;;;5047519;28;20592;-63
2023/12/04 01:59:36;;;;;;;46.38;22.65;;;0.10;99.90;;;;;;5054482;28;20041;-63
2023/12/04 02:02:02;;;;;;;46.13;21.35;;;0.00;99.90;;;;;;5045002;28;20041;-63
2023/12/04 02:04:28;;;;;;;43.63;22.38;;;0.00;99.90;;;;;;5043801;28;20410;-63
2023/12/04 02:06:54;;;;;;;45.25;22.25;;;0.00;99.90;;;;;;5059762;28;20193;-63
2023/12/04 02:09:20;;;;;;;46.13;22.45;;;0.80;99.90;;;;;;5067787;28;20056;-62
2023/12/04 02:11:45;;;;;;;44.95;22.10;;;0.00;99.90;;;;;;5039982;28;20049;-63
2023/12/04 02:14:12;;;;;;;37.67;20.45;;;0.00;99.90;;;;;;5059102;28;20128;-62
2023/12/04 02:16:41;;;;;;;44.60;21.83;;;0.00;99.90;;;;;;5059750;28;20060;-62
2023/12/04 02:19:11;;;;;;;41.88;21.40;;;0.00;99.90;;;;;;5070680;28;20083;-63
2023/12/04 02:21:37;;;;;;;40.63;21.40;;;0.20;99.90;;;;;;5033451;28;20251;-61
2023/12/04 02:24:03;;;;;;;41.67;20.95;;;0.00;99.90;;;;;;5060925;28;20040;-62
2023/12/04 02:26:34;;;;;;;42.97;20.33;;;0.10;99.90;;;;;;5062982;28;20118;-62
2023/12/04 02:29:04;;;;;;;42.83;20.88;;;0.10;99.90;;;;;;5055561;28;20032;-63
2023/12/04 02:31:33;;;;;;;40.55;20.52;;;0.00;99.90;;;;;;5062214;28;20630;-62
2023/12/04 02:34:00;;;;;;;43.85;21.25;;;0.10;99.90;;;;;;5055162;28;20052;-62
2023/12/04 02:36:29;;;;;;;42.58;20.13;;;0.10;99.90;;;;;;5054362;28;20056;-62
2023/12/04 02:38:55;;;;;;;38.40;19.73;;;0.00;99.90;;;;;;5056191;28;20060;-62
2023/12/04 02:41:21;;;;;;;38.88;20.02;;;0.10;99.90;;;;;;5057540;28;20124;-62
2023/12/04 02:43:46;;;;;;;43.47;20.85;;;0.30;99.90;;;;;;5054539;28;20686;-62
2023/12/04 02:46:12;;;;;;;40.58;20.38;;;0.30;99.90;;;;;;5048989;28;20731;-62
2023/12/04 02:48:38;;;;;;;39.70;20.70;;;0.10;99.90;;;;;;5068668;28;20076;-62
2023/12/04 02:51:04;;;;;;;42.40;21.05;;;0.10;99.90;;;;;;5048426;28;20052;-62
2023/12/04 02:53:30;;;;;;;41.47;19.98;;;0.10;99.90;;;;;;5037875;28;20048;-62
2023/12/04 02:55:56;;;;;;;40.50;19.45;;;0.10;99.90;;;;;;5053783;28;20040;-62
2023/12/04 02:58:21;;;;;;;41.00;20.92;;;0.10;99.90;;;;;;5055288;28;20072;-62
2023/12/04 03:00:47;;;;;;;40.45;19.02;;;0.10;99.90;;;;;;5057344;28;20124;-72
2023/12/04 03:03:13;;;;;;;41.33;20.80;;;0.10;99.90;;;;;;5054918;28;20396;-62
2023/12/04 03:05:38;;;;;;;43.30;21.02;;;0.60;99.90;;;;;;5056923;28;20068;-62
2023/12/04 03:08:04;;;;;;;41.97;20.90;;;0.10;99.90;;;;;;5053978;28;20037;-62
2023/12/04 03:10:30;;;;;;;43.97;21.75;;;0.10;99.90;;;;;;5062875;28;20041;-62
2023/12/04 03:12:55;;;;;;;42.00;20.35;;;0.10;99.90;;;;;;5059103;28;20068;-62
2023/12/04 03:15:21;;;;;;;42.50;20.25;;;0.10;99.90;;;;;;5063432;28;20052;-63
2023/12/04 03:17:47;;;;;;;46.97;21.52;;;0.20;99.90;;;;;;5038118;28;20123;-62
2023/12/04 03:20:12;;;;;;;44.05;22.10;;;0.10;99.90;;;;;;5064018;28;20471;-62
2023/12/04 03:22:38;;;;;;;40.83;20.40;;;0.10;99.90;;;;;;5035707;28;20044;-62
2023/12/04 03:25:04;;;;;;;43.13;20.95;;;0.10;99.90;;;;;;5059723;28;20851;-62
2023/12/04 03:27:30;;;;;;;40.83;20.15;;;0.10;99.90;;;;;;5058315;28;20485;-62
2023/12/04 03:29:56;;;;;;;42.83;21.30;;;0.10;99.90;;;;;;5051017;28;20052;-62
2023/12/04 03:32:22;;;;;;;40.40;19.80;;;0.10;99.90;;;;;;5056585;28;20118;-62
2023/12/04 03:34:47;;;;;;;42.40;20.50;;;0.20;99.90;;;;;;5052119;28;20054;-62
2023/12/04 03:37:13;;;;;;;36.15;19.40;;;0.10;99.90;;;;;;5054480;28;20799;-63
2023/12/04 03:39:39;;;;;;;40.42;19.92;;;0.20;99.90;;;;;;5047889;28;20529;-63
2023/12/04 03:42:04;;;;;;;42.42;20.48;;;0.30;99.90;;;;;;5064379;28;20165;-62
2023/12/04 03:44:30;;;;;;;39.80;20.17;;;0.30;99.90;;;;;;5055515;28;20043;-62
2023/12/04 03:46:56;;;;;;;42.85;20.90;;;0.20;99.90;;;;;;5052848;28;20045;-62
2023/12/04 03:49:21;;;;;;;41.15;19.55;;;0.20;99.90;;;;;;5054371;28;20397;-62
2023/12/04 03:51:47;;;;;;;43.60;19.70;;;0.10;99.90;;;;;;5054355;28;20040;-63
2023/12/04 03:54:13;;;;;;;46.20;21.38;;;0.10;99.90;;;;;;5053655;28;20128;-62
2023/12/04 03:56:40;;;;;;;44.45;20.50;;;0.20;99.90;;;;;;5058779;28;20052;-62
2023/12/04 03:59:06;;;;;;;43.92;21.02;;;0.20;99.90;;;;;;5047007;28;20137;-62
2023/12/04 04:01:31;;;;;;;42.80;20.17;;;0.20;99.90;;;;;;5051952;28;20421;-62
2023/12/04 04:03:57;;;;;;;38.58;19.75;;;0.20;99.90;;;;;;5053679;28;20064;-62
2023/12/04 04:06:23;;;;;;;40.30;20.20;;;0.20;99.90;;;;;;5061976;28;20045;-62
2023/12/04 04:08:49;;;;;;;40.42;19.60;;;0.20;99.90;;;;;;5063354;28;20683;-70
2023/12/04 04:11:14;;;;;;;37.85;19.23;;;0.20;99.90;;;;;;5065373;28;20094;-63
2023/12/04 04:13:40;;;;;;;43.25;19.38;;;1.10;99.90;;;;;;5054845;28;20036;-63
2023/12/04 04:16:06;;;;;;;40.35;20.45;;;0.20;99.90;;;;;;5047557;28;20167;-63
2023/12/04 04:18:32;;;;;;;43.08;20.42;;;0.20;99.90;;;;;;5050974;28;20155;-63
2023/12/04 04:20:58;;;;;;;44.67;20.30;;;1.40;99.90;;;;;;5058432;28;20363;-63
2023/12/04 04:23:23;;;;;;;43.42;20.38;;;0.50;99.90;;;;;;5053164;28;20037;-62
2023/12/04 04:25:49;;;;;;;40.30;19.58;;;1.20;99.90;;;;;;5037091;28;20042;-63
2023/12/04 04:28:15;;;;;;;41.53;20.27;;;0.20;99.90;;;;;;5056686;28;20071;-63
2023/12/04 04:30:41;;;;;;;42.83;19.65;;;0.20;99.90;;;;;;5052375;28;20040;-62
2023/12/04 04:33:06;;;;;;;36.83;19.25;;;0.20;99.90;;;;;;5054181;28;20154;-63
2023/12/04 04:35:32;;;;;;;38.33;19.00;;;0.20;99.90;;;;;;5049824;28;20036;-63
2023/12/04 04:37:58;;;;;;;39.30;19.08;;;0.20;99.90;;;;;;5057406;28;20049;-63
2023/12/04 04:40:24;;;;;;;42.90;19.73;;;0.20;99.90;;;;;;5055219;28;20056;-63
2023/12/04 04:42:49;;;;;;;42.58;19.88;;;0.20;99.90;;;;;;5049182;28;20044;-63
2023/12/04 04:45:15;;;;;;;40.80;18.65;;;1.30;99.90;;;;;;5063029;28;20044;-64
2023/12/04 04:47:41;;;;;;;37.55;18.33;;;0.20;99.90;;;;;;5045170;28;20529;-63
2023/12/04 04:50:07;;;;;;;42.67;19.67;;;0.30;99.90;;;;;;5050331;28;20128;-63
2023/12/04 04:52:32;;;;;;;39.85;18.88;;;0.30;99.90;;;;;;5046938;28;20048;-63
2023/12/04 04:54:58;;;;;;;37.70;18.13;;;0.20;99.90;;;;;;5056255;28;20041;-63
2023/12/04 04:57:24;;;;;;;39.53;19.92;;;0.20;99.90;;;;;;5053379;28;20060;-63
2023/12/04 04:59:49;;;;;;;37.28;17.38;;;0.30;99.90;;;;;;5054162;28;20041;-63
2023/12/04 05:02:15;;;;;;;40.65;19.55;;;0.30;99.90;;;;;;5050775;28;20048;-65
2023/12/04 05:04:41;;;;;;;40.38;18.73;;;0.30;99.90;;;;;;5049652;28;20755;-63
2023/12/04 05:07:07;;;;;;;38.45;18.02;;;0.30;99.90;;;;;;5047936;28;20037;-63
2023/12/04 05:09:32;;;;;;;38.63;17.55;;;0.20;99.90;;;;;;5056125;28;20055;-63
2023/12/04 05:11:58;;;;;;;39.97;18.65;;;0.20;99.90;;;;;;5059109;28;20051;-63
2023/12/04 05:14:24;;;;;;;34.92;17.55;;;0.20;99.90;;;;;;5055393;28;20412;-63
2023/12/04 05:16:49;;;;;;;37.85;18.23;;;0.30;99.90;;;;;;5025006;28;20098;-63
2023/12/04 05:19:15;;;;;;;41.53;17.73;;;0.30;99.90;;;;;;5059170;28;20130;-63
2023/12/04 05:21:41;;;;;;;38.13;17.75;;;0.20;99.90;;;;;;5057077;28;20045;-63
2023/12/04 05:24:07;;;;;;;40.85;18.52;;;0.30;99.90;;;;;;5052286;28;20592;-64
2023/12/04 05:26:32;;;;;;;38.40;17.98;;;0.30;99.90;;;;;;5055270;28;20175;-64
2023/12/04 05:28:58;;;;;;;38.08;18.15;;;0.30;99.90;;;;;;5057484;28;20408;-63
2023/12/04 05:31:24;;;;;;;36.13;17.92;;;0.30;99.90;;;;;;5048340;28;20516;-63
2023/12/04 05:33:49;;;;;;;35.65;17.23;;;0.30;99.90;;;;;;5048209;28;20040;-64
2023/12/04 05:36:15;;;;;;;33.75;17.17;;;0.30;99.90;;;;;;5048817;28;20048;-63
2023/12/04 05:38:41;;;;;;;39.60;18.27;;;0.30;99.90;;;;;;5050818;28;20052;-63
2023/12/04 05:41:07;;;;;;;38.50;17.77;;;0.30;99.90;;;;;;5051349;28;20468;-63
2023/12/04 05:43:32;;;;;;;37.85;17.48;;;0.30;99.90;;;;;;5061498;28;20726;-66
2023/12/04 05:45:58;;;;;;;35.78;17.05;;;0.30;99.90;;;;;;5060153;28;20044;-62
2023/12/04 05:48:23;;;;;;;39.25;17.70;;;0.30;99.90;;;;;;5055461;28;20040;-62
2023/12/04 05:50:49;;;;;;;37.20;17.67;;;0.30;99.90;;;;;;5049314;28;20072;-62
2023/12/04 05:53:16;;;;;;;35.33;17.42;;;0.30;99.90;;;;;;5048688;28;20044;-63
2023/12/04 05:55:41;;;;;;;34.35;16.25;;;0.60;99.90;;;;;;5058831;28;20611;-62
2023/12/04 05:58:07;;;;;;;36.30;18.25;;;0.30;99.90;;;;;;5040645;28;20125;-63
2023/12/04 06:00:32;;;;;;;32.50;16.83;;;0.50;99.90;;;;;;5057163;28;20362;-62
2023/12/04 06:02:58;;;;;;;37.17;16.90;;;0.30;99.90;;;;;;5059666;28;20064;-62
2023/12/04 06:05:24;;;;;;;37.97;16.17;;;0.30;99.90;;;;;;5063713;28;20451;-63
2023/12/04 06:07:53;;;;;;;38.45;18.02;;;0.30;99.90;;;;;;5059101;28;20044;-66
2023/12/04 06:10:19;;;;;;;33.55;16.48;;;0.30;99.90;;;;;;5062051;28;20516;-64
2023/12/04 06:12:44;;;;;;;36.45;17.20;;;0.30;99.90;;;;;;5045261;28;20052;-65
2023/12/04 06:15:10;;;;;;;33.17;17.08;;;0.30;99.90;;;;;;5060571;28;20273;-65
2023/12/04 06:17:36;;;;;;;31.92;17.48;;;0.30;99.90;;;;;;5060053;28;20048;-63
2023/12/04 06:20:01;;;;;;;39.95;17.02;;;0.30;99.90;;;;;;5060129;28;21543;-62
2023/12/04 06:22:27;;;;;;;36.33;18.40;;;0.30;99.90;;;;;;5060696;28;20045;-64
2023/12/04 06:24:53;;;;;;;33.38;16.25;;;0.30;99.90;;;;;;5059309;28;20048;-63
2023/12/04 06:27:20;;;;;;;34.65;16.48;;;0.30;99.90;;;;;;5056900;28;20079;-63
2023/12/04 06:29:47;;;;;;;34.97;16.52;;;0.30;99.90;;;;;;5018716;28;20055;-63
2023/12/04 06:32:13;;;;;;;35.38;16.80;;;0.30;99.90;;;;;;5049626;28;20149;-62
2023/12/04 06:34:39;;;;;;;35.17;16.25;;;0.30;99.90;;;;;;5036963;28;20562;-62
2023/12/04 06:37:11;;;;;;;34.63;16.33;;;0.30;99.90;;;;;;5053725;28;20048;-63
2023/12/04 06:39:37;;;;;;;;;;;0.30;99.90;;;;;;5051383;28;20052;-63
2023/12/04 06:42:04;;;;;;;29.83;14.50;;;0.30;99.90;;;;;;5048267;28;20300;-63
2023/12/04 06:44:30;;;;;;;33.50;17.77;;;0.30;99.90;;;;;;5058740;28;20056;-63
2023/12/04 06:47:02;;;;;;;31.08;15.60;;;0.30;99.90;;;;;;5056596;28;20056;-63
2023/12/04 06:49:32;;;;;;;32.33;15.73;;;0.30;99.90;;;;;;5050477;28;20139;-64
2023/12/04 06:52:01;;;;;;;30.52;15.05;;;0.30;99.90;;;;;;5055567;28;20040;-63
2023/12/04 06:54:27;;;;;;;29.95;15.18;;;0.30;99.90;;;;;;5063459;28;20075;-63
2023/12/04 06:56:53;;;;;;;30.70;15.98;;;0.30;99.90;;;;;;5059103;28;20183;-65
2023/12/04 06:59:19;;;;;;;27.75;14.57;;;0.30;99.90;;;;;;5054709;28;20723;-64
2023/12/04 07:01:45;;;;;;;31.67;15.05;;;0.30;99.90;;;;;;5066038;28;20036;-63
2023/12/04 07:04:11;;;;;;;28.38;13.45;;;0.30;99.90;;;;;;5057566;28;20281;-64
2023/12/04 07:06:37;;;;;;;32.22;16.02;;;0.30;99.90;;;;;;5043761;28;20077;-63
2023/12/04 07:09:03;;;;;;;32.40;15.25;;;0.30;99.90;;;;;;5062787;28;20450;-64
2023/12/04 07:11:29;;;;;;;32.83;15.07;;;0.30;99.90;;;;;;5051240;28;20675;-63
2023/12/04 07:13:55;;;;;;;33.05;16.38;;;0.30;99.90;;;;;;5040156;28;20044;-64
2023/12/04 07:16:21;;;;;;;32.03;15.25;;;0.30;99.90;;;;;;5053659;28;20048;-63
2023/12/04 07:18:47;;;;;;;29.40;15.15;;;0.30;99.90;;;;;;5050087;28;20029;-63
2023/12/04 07:21:12;;;;;;;27.27;14.10;;;0.20;99.90;;;;;;5059396;28;20150;-64
2023/12/04 07:23:38;;;;;;;31.60;14.48;;;0.30;99.90;;;;;;5062655;28;20052;-64
2023/12/04 07:26:06;;;;;;;27.67;14.23;;;0.20;99.90;;;;;;5063386;28;20048;-63
2023/12/04 07:28:32;;;;;;;30.77;14.70;;;0.30;99.90;;;;;;5056080;28;20528;-64
2023/12/04 07:30:58;;;;;;;30.40;15.18;;;0.30;99.90;;;;;;5063560;28;20076;-65
2023/12/04 07:33:24;;;;;;;28.83;14.40;;;0.20;99.90;;;;;;5058308;28;20087;-64
2023/12/04 07:35:51;;;;;;;30.95;14.82;;;0.20;99.90;;;;;;5062092;28;20692;-64
2023/12/04 07:38:17;;;;;;;30.10;14.80;;;0.30;99.90;;;;;;5057462;28;20142;-63
2023/12/04 07:40:43;;;;;;;29.20;14.13;;;0.30;99.90;;;;;;5060925;28;20131;-63
2023/12/04 07:43:09;;;;;;;29.30;14.13;;;0.20;99.90;;;;;;5065966;28;20051;-68
2023/12/04 07:45:36;;;;;;;27.65;14.43;;;0.20;99.90;;;;;;5065417;28;20047;-64
2023/12/04 07:48:03;;;;;;;28.27;13.00;;;0.20;99.90;;;;;;5064518;28;20549;-64
2023/12/04 07:50:29;;;;;;;28.45;14.30;;;0.20;99.90;;;;;;5056515;28;20048;-63
2023/12/04 07:52:55;;;;;;;27.35;14.23;;;0.20;99.90;;;;;;5066921;28;20060;-64
2023/12/04 07:55:20;;;;;;;28.00;14.82;;;0.20;99.90;;;;;;5058743;28;20041;-64
2023/12/04 07:57:47;;;;;;;26.50;14.35;;;0.20;99.90;;;;;;5059272;28;20036;-64
2023/12/04 08:00:14;;;;;;;27.00;13.07;;;0.20;99.90;;;;;;5041521;28;20098;-64
2023/12/04 08:02:40;;;;;;;33.40;15.90;;;0.20;99.90;;;;;;5061737;28;20058;-64
2023/12/04 08:05:06;;;;;;;28.95;14.13;;;0.20;99.90;;;;;;5058517;28;20044;-63
2023/12/04 08:07:32;;;;;;;27.90;13.70;;;0.20;99.90;;;;;;5056097;28;20094;-64
2023/12/04 08:09:58;;;;;;;27.00;13.50;;;0.20;99.90;;;;;;5058755;28;20462;-64
2023/12/04 08:12:23;;;;;;;25.33;12.88;;;0.20;99.90;;;;;;5061907;28;20120;-63
2023/12/04 08:14:49;;;;;;;26.67;13.50;;;0.20;99.90;;;;;;5053260;28;20044;-63
2023/12/04 08:17:15;;;;;;;27.10;12.80;;;0.20;99.90;;;;;;5054697;28;20052;-63
2023/12/04 08:19:41;;;;;;;26.50;13.40;;;0.20;99.90;;;;;;5066474;28;20051;-64
2023/12/04 08:22:07;;;;;;;26.48;13.45;;;0.30;99.90;;;;;;5065563;28;20044;-63
2023/12/04 08:24:33;;;;;;;27.88;13.52;;;0.30;99.90;;;;;;5069321;28;20054;-63
2023/12/04 08:26:58;;;;;;;30.73;12.20;;;0.30;99.90;;;;;;5061162;28;20413;-64
2023/12/04 08:29:24;;;;;;;24.40;12.38;;;0.30;99.90;;;;;;5064595;28;20048;-64
2023/12/04 08:31:50;;;;;;;22.60;11.57;;;0.50;99.90;;;;;;5066284;28;20036;-64
2023/12/04 08:34:16;;;;;;;26.23;12.25;;;0.30;99.90;;;;;;5064606;28;20043;-63
2023/12/04 08:36:41;;;;;;;25.38;11.77;;;0.70;99.90;;;;;;5059353;28;20033;-64
2023/12/04 08:39:07;;;;;;;24.65;11.80;;;0.30;99.90;;;;;;5061700;28;20052;-63
2023/12/04 08:41:33;;;;;;;27.08;11.48;;;0.30;99.90;;;;;;5055986;28;20140;-64
2023/12/04 08:43:58;;;;;;;24.48;11.93;;;0.40;99.90;;;;;;5056721;28;20578;-64
2023/12/04 08:46:24;;;;;;;23.05;11.30;;;0.30;99.90;;;;;;5056786;28;20086;-64
2023/12/04 08:48:50;;;;;;;24.92;11.95;;;0.50;99.90;;;;;;5065080;28;20040;-64
2023/12/04 08:51:17;;;;;;;23.45;11.40;;;0.40;99.90;;;;;;5055849;28;20044;-65
2023/12/04 08:53:43;;;;;;;24.17;11.38;;;0.40;99.90;;;;;;5037136;28;20664;-64
2023/12/04 08:56:10;;;;;;;21.60;11.18;;;0.40;99.90;;;;;;5058526;28;20445;-64
2023/12/04 08:58:36;;;;;;;25.30;12.50;;;0.40;99.90;;;;;;5059618;28;20049;-64
2023/12/04 09:01:03;;;;;;;25.15;11.23;;;0.40;99.90;;;;;;5052881;28;20159;-64
2023/12/04 09:03:31;;;;;;;21.83;10.77;;;0.40;99.90;;;;;;5057200;28;20132;-64
2023/12/04 09:05:57;;;;;;;21.50;10.68;;;0.40;99.90;;;;;;5057618;28;20043;-64
2023/12/04 09:08:25;;;;;;;19.67;10.75;;;0.40;99.90;;;;;;5053388;28;20522;-64
2023/12/04 09:10:51;;;;;;;22.92;10.93;;;0.40;99.90;;;;;;5055138;28;20406;-63
2023/12/04 09:13:17;;;;;;;20.30;10.85;;;0.50;99.90;;;;;;5044990;28;20036;-64
2023/12/04 09:15:42;;;;;;;20.55;10.40;;;0.40;99.90;;;;;;5055277;28;20043;-64
2023/12/04 09:18:08;;;;;;;21.33;10.75;;;0.50;99.90;;;;;;5059960;28;20040;-64
2023/12/04 09:20:34;;;;;;;20.70;10.00;;;0.50;99.90;;;;;;5061434;28;20115;-64
2023/12/04 09:23:00;;;;;;;20.33;10.18;;;0.50;99.90;;;;;;5045599;28;20051;-64
2023/12/04 09:25:25;;;;;;;19.80;10.35;;;0.50;99.90;;;;;;5040496;28;20037;-64
2023/12/04 09:27:51;;;;;;;22.45;10.40;;;0.50;99.90;;;;;;5061270;28;20192;-64
2023/12/04 09:30:17;;;;;;;23.05;11.02;;;0.50;99.90;;;;;;5064249;28;20048;-64
2023/12/04 09:32:43;;;;;;;19.90;9.25;;;0.50;99.90;;;;;;5059982;28;20113;-64
2023/12/04 09:35:10;;;;;;;21.95;10.38;;;0.50;99.90;;;;;;5059994;28;20055;-64
2023/12/04 09:37:36;;;;;;;22.25;9.88;;;0.50;99.90;;;;;;5049173;28;20048;-64
2023/12/04 09:40:02;;;;;;;18.60;9.75;;;0.60;99.90;;;;;;5050801;28;20338;-63
2023/12/04 09:42:30;;;;;;;21.02;9.85;;;0.60;99.90;;;;;;5042945;28;20684;-64
2023/12/04 09:44:58;;;;;;;22.40;10.35;;;0.60;99.90;;;;;;5043694;28;20457;-64
2023/12/04 09:47:26;;;;;;;20.33;9.77;;;0.60;99.90;;;;;;5049480;28;20041;-64
2023/12/04 09:49:54;;;;;;;19.75;9.65;;;0.60;99.90;;;;;;5050091;28;20072;-64
2023/12/04 09:52:20;;;;;;;17.90;9.45;;;0.60;99.90;;;;;;5046483;28;20059;-64
2023/12/04 09:54:46;;;;;;;19.02;9.32;;;0.60;99.90;;;;;;5053219;28;20087;-66
2023/12/04 09:57:12;;;;;;;18.45;9.55;;;0.60;99.90;;;;;;5049682;28;20052;-65
2023/12/04 09:59:39;;;;;;;17.98;8.80;;;0.60;99.90;;;;;;5060785;28;20139;-65
2023/12/04 10:02:06;;;;;;;20.30;9.02;;;0.60;99.90;;;;;;5053732;28;20052;-65
2023/12/04 10:04:33;;;;;;;17.55;8.80;;;1.40;99.90;;;;;;5050075;28;20036;-66
2023/12/04 10:06:59;;;;;;;19.80;8.30;;;0.70;99.90;;;;;;5047776;28;20520;-66
2023/12/04 10:09:24;;;;;;;19.60;9.32;;;0.70;99.90;;;;;;5053030;28;20135;-67
2023/12/04 10:11:51;;;;;;;14.88;7.82;;;1.40;99.90;;;;;;5049843;28;20049;-65
2023/12/04 10:14:21;;;;;;;16.92;8.68;;;0.70;99.90;;;;;;5048760;28;20048;-64
2023/12/04 10:16:47;;;;;;;17.05;8.68;;;0.80;99.90;;;;;;5057026;28;20166;-65
2023/12/04 10:19:22;;;;;;;15.07;8.13;;;0.80;99.90;;;;;;5051409;28;20144;-66
2023/12/04 10:21:53;;;;;;;16.85;8.43;;;0.90;99.90;;;;;;5052035;28;20062;-65
2023/12/04 10:24:30;;;;;;;15.73;8.15;;;0.90;99.90;;;;;;5040712;28;20052;-65
2023/12/04 10:26:56;;;;;;;20.98;9.20;;;0.90;99.90;;;;;;5064992;28;20386;-65
2023/12/04 10:29:22;;;;;;;14.60;7.97;;;0.90;99.90;;;;;;5069302;28;20040;-66
2023/12/04 10:31:50;;;;;;;14.52;7.90;;;1.10;99.90;;;;;;5028642;28;20880;-69
2023/12/04 10:34:16;;;;;;;19.65;8.43;;;0.90;99.90;;;;;;5053070;28;20056;-66
2023/12/04 10:36:44;;;;;;;16.50;8.65;;;0.90;99.90;;;;;;5039619;28;20040;-65
2023/12/04 10:39:13;;;;;;;17.08;8.65;;;1.60;99.90;;;;;;5060139;28;20216;-65
2023/12/04 10:41:39;;;;;;;16.10;8.15;;;1.00;99.90;;;;;;5035822;28;20048;-65
2023/12/04 10:44:04;;;;;;;14.38;8.05;;;1.00;99.90;;;;;;5051673;28;20558;-65
2023/12/04 10:46:31;;;;;;;16.25;8.07;;;1.00;99.90;;;;;;5055144;28;20763;-65
2023/12/04 10:48:58;;;;;;;17.90;8.65;;;1.40;99.90;;;;;;5053950;28;20068;-65
2023/12/04 10:51:25;;;;;;;14.60;7.95;;;1.00;99.90;;;;;;5044150;28;20177;-66
2023/12/04 10:53:51;;;;;;;15.38;8.10;;;1.10;99.90;;;;;;5053674;28;20055;-65
2023/12/04 10:56:29;;;;;;;17.25;8.50;;;1.10;99.90;;;;;;5053633;28;20052;-65
2023/12/04 10:58:59;;;;;;;16.20;8.60;;;1.10;99.90;;;;;;5055088;28;20534;-66
2023/12/04 11:01:26;;;;;;;16.88;8.60;;;1.20;99.90;;;;;;5031054;28;20472;-65
2023/12/04 11:03:58;;;;;;;14.85;7.63;;;1.20;99.90;;;;;;5052848;28;20107;-66
2023/12/04 11:06:28;;;;;;;18.70;8.43;;;1.20;99.90;;;;;;5051122;28;20056;-66
2023/12/04 11:08:58;;;;;;;14.40;7.97;;;1.20;99.90;;;;;;5053407;28;20059;-69
2023/12/04 11:11:37;;;;;;;14.93;7.78;;;1.30;99.90;;;;;;5048403;28;20127;-65
2023/12/04 11:14:07;;;;;;;14.15;7.38;;;1.30;99.90;;;;;;5049794;28;20405;-65
2023/12/04 11:16:42;;;;;;;14.75;7.80;;;1.30;99.90;;;;;;5032746;28;20195;-65
2023/12/04 11:19:17;;;;;;;14.10;7.00;;;1.30;99.90;;;;;;5050772;28;20517;-65
2023/12/04 11:21:46;;;;;;;14.10;7.40;;;1.40;99.90;;;;;;5048104;28;20076;-65
2023/12/04 11:24:12;;;;;;;15.02;7.22;;;1.70;99.90;;;;;;5036091;28;20644;-65
2023/12/04 11:26:42;;;;;;;14.93;7.50;;;1.40;99.90;;;;;;5034107;28;20113;-65
2023/12/04 11:29:11;;;;;;;14.60;7.20;;;1.40;99.90;;;;;;5051692;28;20489;-64
2023/12/04 11:31:37;;;;;;;14.68;7.38;;;1.40;99.90;;;;;;5047806;28;20383;-65
2023/12/04 11:34:03;;;;;;;14.48;7.15;;;1.80;99.90;;;;;;5051967;28;20059;-65
2023/12/04 11:36:29;;;;;;;12.88;7.57;;;1.50;99.90;;;;;;5049481;28;20143;-65
2023/12/04 11:38:58;;;;;;;16.48;7.70;;;1.50;99.90;;;;;;5051766;28;20130;-64
2023/12/04 11:41:25;;;;;;;13.25;7.03;;;1.50;99.90;;;;;;5048803;28;20151;-64
2023/12/04 11:43:52;;;;;;;14.85;8.13;;;1.40;99.90;;;;;;5050201;28;20048;-64
2023/12/04 11:46:26;;;;;;;15.85;7.28;;;1.40;99.90;;;;;;5048457;28;20048;-73
2023/12/04 11:48:55;;;;;;;14.60;6.50;;;1.40;99.90;;;;;;5046489;28;20056;-64
2023/12/04 11:51:39;;;;;;;14.95;7.38;;;1.50;99.90;;;;;;5050836;28;20056;-64
2023/12/04 11:54:08;;;;;;;16.10;7.68;;;1.90;99.90;;;;;;5052497;28;20418;-65
2023/12/04 11:56:34;;;;;;;13.75;7.47;;;1.40;99.90;;;;;;5053019;28;20055;-64
2023/12/04 11:59:07;;;;;;;15.20;7.53;;;1.50;99.90;;;;;;5056544;28;20424;-64
2023/12/04 12:01:41;;;;;;;15.63;7.53;;;1.50;99.90;;;;;;5047371;28;20410;-64
2023/12/04 12:04:07;;;;;;;14.18;7.05;;;1.40;99.90;;;;;;5052148;28;20052;-64
2023/12/04 12:06:33;;;;;;;15.32;6.97;;;1.40;99.90;;;;;;5035643;28;20055;-64
2023/12/04 12:08:59;;;;;;;12.45;7.10;;;1.40;99.90;;;;;;5052230;28;20695;-65
2023/12/04 12:11:26;;;;;;;13.20;7.47;;;1.50;99.90;;;;;;5049052;28;20045;-64
2023/12/04 12:13:53;;;;;;;14.65;7.40;;;1.40;99.90;;;;;;5054731;28;20067;-63
2023/12/04 12:16:19;;;;;;;14.82;7.57;;;1.40;99.90;;;;;;5047948;28;20592;-64
2023/12/04 12:18:46;;;;;;;11.80;6.72;;;1.60;99.90;;;;;;5060114;28;20131;-64
2023/12/04 12:21:12;;;;;;;15.25;6.93;;;1.40;99.90;;;;;;5042429;28;20488;-64
2023/12/04 12:23:38;;;;;;;14.75;7.28;;;1.40;99.90;;;;;;5060368;28;20037;-64
2023/12/04 12:26:04;;;;;;;12.77;6.88;;;2.10;99.90;;;;;;5060271;28;20041;-64
2023/12/04 12:28:30;;;;;;;12.52;6.70;;;1.30;99.90;;;;;;5060991;28;20071;-64
2023/12/04 12:30:56;;;;;;;13.73;6.63;;;1.40;99.90;;;;;;5058332;28;20053;-64
2023/12/04 12:33:23;;;;;;;15.55;7.45;;;1.40;99.90;;;;;;5056657;28;20028;-64
2023/12/04 12:35:49;;;;;;;17.70;7.15;;;1.50;99.90;;;;;;5059431;28;20518;-63